createdAt,value
2022-10-23T05:36:35.484Z,92.99
2022-10-23T05:39:05.648Z,92.12
2022-10-23T05:41:35.292Z,91.78
2022-10-23T05:44:06.430Z,91.45
2022-10-23T05:46:54.284Z,91.57
2022-10-23T05:49:43.105Z,91.63
2022-10-23T05:52:30.801Z,91.97
2022-10-23T06:12:11.556Z,90.65
2022-10-23T06:14:40.046Z,90.21
2022-10-23T06:17:08.614Z,90.16
2022-10-23T06:19:39.751Z,90.13
2022-10-23T06:22:07.765Z,89.86
2022-10-23T06:24:46.192Z,89.89
2022-10-23T06:27:18.912Z,89.98
2022-10-23T06:30:06.941Z,89.56
2022-10-23T06:32:57.174Z,89.29
2022-10-23T06:35:34.468Z,89.29
2022-10-23T06:49:12.617Z,89.11
2022-10-23T06:51:49.320Z,89.27
2022-10-23T06:54:21.479Z,89.25
2022-10-23T06:56:51.916Z,89.21
2022-10-23T06:59:42.827Z,89.31
2022-10-23T07:02:15.603Z,89.14
2022-10-23T07:04:45.730Z,89.05
2022-10-23T07:07:17.860Z,88.70
2022-10-23T07:09:47.883Z,88.32
2022-10-23T07:12:24.401Z,88.34
2022-10-23T07:15:00.875Z,88.60
2022-10-23T07:17:29.671Z,88.45
2022-10-23T07:19:59.138Z,88.58
2022-10-23T07:22:28.322Z,88.67
2022-10-23T07:25:07.158Z,88.70
2022-10-23T07:27:38.461Z,88.48
2022-10-23T07:30:10.008Z,89.11
2022-10-23T07:32:45.904Z,88.67
2022-10-23T07:36:03.351Z,88.83
2022-10-23T07:38:36.139Z,88.38
2022-10-23T07:41:07.780Z,88.25
2022-10-23T07:43:39.039Z,88.34
2022-10-23T07:46:09.470Z,88.59
2022-10-23T07:48:39.667Z,88.99
2022-10-23T07:51:12.643Z,88.77
2022-10-23T07:53:43.787Z,88.73
2022-10-23T07:56:59.668Z,88.59
2022-10-23T08:05:58.014Z,89.09
2022-10-23T08:08:28.018Z,89.11
2022-10-23T08:11:01.919Z,88.97
2022-10-23T08:13:34.906Z,89.11
2022-10-23T08:16:06.720Z,89.06
2022-10-23T08:19:29.353Z,88.88
2022-10-23T08:21:59.985Z,88.78
2022-10-23T08:24:29.249Z,88.64
2022-10-23T08:26:59.181Z,88.40
2022-10-23T08:29:28.381Z,87.93
2022-10-23T08:31:57.716Z,88.05
2022-10-23T08:34:35.193Z,87.61
2022-10-23T08:37:05.371Z,87.68
2022-10-23T08:39:35.547Z,87.05
2022-10-23T08:42:26.479Z,86.74
2022-10-23T09:10:33.250Z,84.15
2022-10-23T09:13:29.792Z,83.99
2022-10-23T09:16:20.218Z,83.67
2022-10-23T09:18:49.569Z,83.70
2022-10-23T09:21:17.074Z,83.25
2022-10-23T09:23:44.683Z,83.39
2022-10-23T09:26:18.509Z,83.23
2022-10-23T09:28:54.909Z,83.07
2022-10-23T09:31:22.663Z,83.07
2022-10-23T09:34:06.470Z,82.57
2022-10-23T09:36:36.411Z,81.98
2022-10-23T09:39:04.263Z,81.80
2022-10-23T09:41:40.119Z,81.97
2022-10-23T09:44:17.712Z,81.93
2022-10-23T09:46:55.371Z,81.73
2022-10-23T09:49:33.868Z,81.82
2022-10-23T09:52:35.681Z,81.74
2022-10-23T09:55:26.529Z,81.78
2022-10-23T09:57:55.457Z,81.50
2022-10-23T10:00:27.035Z,81.08
2022-10-23T10:03:05.173Z,80.66
2022-10-23T10:05:43.665Z,79.38
2022-10-23T10:08:49.137Z,78.49
2022-10-23T10:11:35.068Z,77.87
2022-10-23T10:14:40.248Z,77.30
2022-10-23T10:28:30.030Z,75.36
2022-10-23T10:31:29.418Z,75.13
2022-10-23T10:34:56.746Z,74.69
2022-10-23T10:38:12.610Z,74.80
2022-10-23T10:41:17.332Z,75.65
2022-10-23T10:44:25.141Z,74.07
2022-10-23T10:47:19.970Z,73.83
2022-10-23T10:50:18.319Z,72.94
2022-10-23T10:53:51.390Z,72.52
2022-10-23T10:56:25.521Z,71.94
2022-10-23T10:59:01.411Z,71.77
2022-10-23T11:01:41.382Z,71.45
2022-10-23T11:17:54.268Z,69.94
2022-10-23T11:20:54.316Z,70.07
2022-10-23T11:26:43.678Z,70.23
2022-10-23T11:29:52.019Z,70.43
2022-10-23T11:32:39.463Z,70.72
2022-10-23T11:35:58.349Z,71.14
2022-10-23T11:38:31.604Z,71.55
2022-10-23T11:41:19.889Z,71.18
2022-10-23T11:44:02.083Z,70.80
2022-10-23T11:46:35.674Z,70.95
2022-10-23T11:49:07.190Z,71.00
2022-10-23T11:51:38.199Z,70.82
2022-10-23T11:54:15.764Z,71.05
2022-10-23T11:57:10.618Z,70.28
2022-10-23T11:59:46.017Z,70.23
2022-10-23T12:05:42.501Z,70.05
2022-10-23T12:08:25.708Z,69.89
2022-10-23T12:10:56.209Z,70.03
2022-10-23T12:13:46.978Z,69.89
2022-10-23T12:16:15.890Z,69.24
2022-10-23T12:22:02.296Z,68.92
2022-10-23T12:24:56.265Z,69.08
2022-10-23T12:27:42.029Z,68.44
2022-10-23T12:31:07.651Z,67.66
2022-10-23T12:34:09.839Z,67.85
2022-10-23T12:36:51.915Z,68.05
2022-10-23T12:39:39.442Z,68.05
2022-10-23T12:42:25.601Z,67.98
2022-10-23T12:45:19.072Z,67.88
2022-10-23T12:47:50.320Z,67.71
2022-10-23T12:50:31.543Z,66.75
2022-10-23T12:53:08.602Z,66.44
2022-10-23T12:56:03.496Z,65.67
2022-10-23T12:58:35.567Z,65.87
2022-10-23T13:01:08.323Z,65.74
2022-10-23T13:03:39.401Z,65.66
2022-10-23T13:06:11.837Z,66.02
2022-10-23T13:09:54.385Z,66.45
2022-10-23T13:12:44.686Z,66.81
2022-10-23T13:15:20.627Z,66.80
2022-10-23T13:18:11.575Z,66.72
2022-10-23T13:20:53.023Z,66.63
2022-10-23T13:23:36.521Z,66.70
2022-10-23T13:26:45.912Z,66.80
2022-10-23T13:29:38.477Z,66.90
2022-10-23T13:32:27.454Z,66.97
2022-10-23T13:35:20.949Z,66.51
2022-10-23T13:37:53.300Z,66.36
2022-10-23T13:40:27.413Z,66.40
2022-10-23T13:42:57.554Z,66.32
2022-10-23T13:45:28.152Z,66.18
2022-10-23T13:47:57.271Z,66.13
2022-10-23T13:50:28.474Z,66.30
2022-10-23T13:52:59.040Z,66.10
2022-10-23T13:55:28.652Z,66.22
2022-10-23T13:57:57.587Z,66.46
2022-10-23T14:00:26.664Z,65.96
2022-10-23T14:02:58.501Z,65.77
2022-10-23T14:05:27.460Z,65.85
2022-10-23T14:07:56.289Z,65.94
2022-10-23T14:10:27.035Z,65.97
2022-10-23T14:12:57.627Z,65.58
2022-10-23T14:15:27.142Z,65.76
2022-10-23T14:17:59.066Z,65.69
2022-10-23T14:20:30.183Z,65.74
2022-10-23T14:22:59.584Z,65.92
2022-10-23T14:25:29.009Z,66.08
2022-10-23T14:28:02.726Z,66.25
2022-10-23T14:30:33.238Z,66.12
2022-10-23T14:33:08.916Z,66.20
2022-10-23T14:35:43.857Z,65.98
2022-10-23T14:38:33.562Z,65.96
2022-10-23T14:41:25.056Z,65.86
2022-10-23T14:43:55.702Z,65.67
2022-10-23T14:46:53.521Z,65.77
2022-10-23T14:49:28.591Z,65.90
2022-10-23T14:52:26.642Z,66.04
2022-10-23T14:55:14.143Z,66.55
2022-10-23T14:58:42.245Z,66.59
2022-10-23T15:01:21.419Z,66.93
2022-10-23T15:05:02.475Z,66.87
2022-10-23T15:08:23.756Z,67.01
2022-10-23T15:11:34.606Z,67.37
2022-10-23T15:14:14.059Z,67.45
2022-10-23T15:17:35.796Z,67.42
2022-10-23T15:20:18.859Z,67.90
2022-10-23T15:23:23.895Z,68.17
2022-10-23T15:26:43.185Z,68.42
2022-10-23T15:34:08.646Z,69.05
2022-10-23T15:52:17.893Z,69.34
2022-10-23T15:54:57.217Z,69.40
2022-10-23T15:57:27.362Z,69.60
2022-10-23T16:00:29.467Z,69.72
2022-10-23T16:03:18.579Z,70.78
2022-10-23T16:06:17.854Z,71.20
2022-10-23T16:09:06.799Z,71.76
2022-10-23T16:11:51.121Z,71.33
2022-10-23T16:14:31.982Z,71.35
2022-10-23T16:17:11.163Z,71.31
2022-10-23T16:20:07.411Z,71.40
2022-10-23T16:47:41.854Z,74.58
2022-10-23T16:50:12.117Z,74.47
2022-10-23T16:52:39.691Z,75.03
2022-10-23T16:55:12.731Z,74.90
2022-10-23T16:57:40.839Z,75.19
2022-10-23T17:00:09.276Z,75.92
2022-10-23T17:02:41.342Z,76.49
2022-10-23T17:18:37.658Z,77.28
2022-10-23T17:21:16.497Z,77.20
2022-10-23T17:23:51.409Z,77.10
2022-10-23T17:26:24.801Z,77.98
2022-10-23T17:28:54.771Z,78.21
2022-10-23T17:31:36.946Z,78.64
2022-10-23T17:34:11.590Z,79.41
2022-10-23T17:36:47.297Z,79.60
2022-10-23T17:50:45.159Z,79.63
2022-10-23T17:53:12.791Z,79.51
2022-10-23T17:55:41.604Z,78.98
2022-10-23T17:58:09.474Z,78.72
2022-10-23T18:00:38.333Z,79.12
2022-10-23T18:03:05.909Z,79.03
2022-10-23T18:05:33.652Z,79.06
2022-10-23T18:08:01.697Z,79.27
2022-10-23T18:10:29.550Z,79.67
2022-10-23T18:12:57.267Z,79.84
2022-10-23T18:15:25.285Z,80.82
2022-10-23T18:17:53.010Z,81.36
2022-10-23T18:20:23.881Z,81.40
2022-10-23T18:22:51.679Z,82.74
2022-10-23T18:25:19.730Z,83.19
2022-10-23T18:27:47.731Z,82.97
2022-10-23T18:30:15.571Z,83.04
2022-10-23T18:32:44.614Z,83.61
2022-10-23T18:35:13.544Z,83.31
2022-10-23T18:37:41.763Z,83.05
2022-10-23T18:40:10.363Z,82.76
2022-10-23T18:42:38.251Z,82.92
2022-10-23T18:45:06.991Z,82.90
2022-10-23T18:47:34.621Z,82.69
2022-10-23T18:50:38.859Z,82.66
2022-10-23T18:53:07.921Z,83.45
2022-10-23T18:55:36.768Z,83.70
2022-10-23T18:58:05.654Z,83.41
2022-10-23T19:03:50.767Z,83.82
2022-10-23T19:06:21.603Z,84.44
2022-10-23T19:08:51.607Z,84.99
2022-10-23T19:11:24.677Z,85.47
2022-10-23T19:13:54.718Z,86.61
2022-10-23T19:16:30.336Z,85.96
2022-10-23T19:19:05.626Z,86.53
2022-10-23T19:21:38.753Z,86.83
2022-10-23T19:24:16.471Z,87.25
2022-10-23T19:26:45.755Z,86.74
2022-10-23T19:29:21.457Z,87.19
2022-10-23T19:31:50.684Z,87.40
2022-10-23T19:34:22.815Z,87.64
2022-10-23T19:36:54.826Z,87.91
2022-10-23T19:39:25.323Z,86.93
2022-10-23T19:41:54.778Z,87.85
2022-10-23T19:44:23.754Z,87.08
2022-10-23T19:46:52.584Z,87.81
2022-10-23T19:49:24.242Z,87.73
2022-10-23T19:51:53.108Z,86.92
2022-10-23T19:54:22.449Z,87.75
2022-10-23T20:00:08.399Z,87.97
2022-10-23T20:02:40.017Z,87.69
2022-10-23T20:05:10.212Z,88.66
2022-10-23T20:07:39.032Z,88.47
2022-10-23T20:10:09.066Z,88.50
2022-10-23T20:12:37.854Z,88.23
2022-10-23T20:15:07.465Z,88.48
2022-10-23T20:17:36.435Z,89.10
2022-10-23T20:20:06.429Z,89.12
2022-10-23T20:22:39.531Z,88.97
2022-10-23T20:25:10.937Z,89.09
2022-10-23T20:27:39.839Z,89.88
2022-10-23T20:30:09.876Z,90.36
2022-10-23T20:32:41.709Z,89.58
2022-10-23T20:35:11.012Z,88.45
2022-10-23T20:37:39.828Z,88.92
2022-10-23T20:40:09.132Z,88.52
2022-10-23T20:42:38.037Z,88.68
2022-10-23T20:45:07.650Z,89.39
2022-10-23T20:47:36.574Z,89.10
2022-10-23T20:50:06.327Z,88.71
2022-10-23T20:52:35.694Z,89.23
2022-10-23T20:55:04.867Z,89.84
2022-10-23T20:57:33.571Z,90.69
2022-10-23T21:00:26.657Z,91.14
2022-10-23T21:03:20.773Z,90.17
2022-10-23T21:05:49.451Z,90.48
2022-10-23T21:08:18.203Z,91.30
2022-10-23T21:10:48.141Z,91.05
2022-10-23T21:13:16.871Z,90.83
2022-10-23T21:15:48.504Z,91.86
2022-10-23T21:18:33.713Z,92.40
